sensor_id;sensor_type;location;lat;lon;timestamp;P1;durP1;ratioP1;P2;durP2;ratioP2
30346;SDS011;19047;44.782;20.468;2022-07-29T05:14:45;5.18;;;4.68;;
30346;SDS011;19047;44.782;20.468;2022-07-29T05:18:02;5.35;;;4.43;;
30346;SDS011;19047;44.782;20.468;2022-07-29T05:21:32;4.93;;;4.45;;
30346;SDS011;19047;44.782;20.468;2022-07-29T05:24:49;5.22;;;4.40;;
30346;SDS011;19047;44.782;20.468;2022-07-29T05:28:20;6.22;;;4.32;;
30346;SDS011;19047;44.782;20.468;2022-07-29T05:31:37;5.80;;;4.60;;
30346;SDS011;19047;44.782;20.468;2022-07-29T05:38:25;6.70;;;4.13;;
30346;SDS011;19047;44.782;20.468;2022-07-29T05:45:12;5.30;;;3.80;;
30346;SDS011;19047;44.782;20.468;2022-07-29T05:48:43;4.75;;;4.20;;
30346;SDS011;19047;44.782;20.468;2022-07-29T06:36:16;4.32;;;3.92;;
30346;SDS011;19047;44.782;20.468;2022-07-29T06:39:34;4.70;;;4.30;;
30346;SDS011;19047;44.782;20.468;2022-07-29T06:43:05;4.30;;;3.90;;
30346;SDS011;19047;44.782;20.468;2022-07-29T06:46:22;4.65;;;3.83;;
30346;SDS011;19047;44.782;20.468;2022-07-29T06:49:53;5.47;;;4.45;;
30346;SDS011;19047;44.782;20.468;2022-07-29T08:28:24;4.63;;;4.22;;
30346;SDS011;19047;44.782;20.468;2022-07-29T08:31:55;4.70;;;4.30;;
30346;SDS011;19047;44.782;20.468;2022-07-29T08:35:13;5.90;;;4.53;;
30346;SDS011;19047;44.782;20.468;2022-07-29T08:38:43;4.82;;;4.40;;
30346;SDS011;19047;44.782;20.468;2022-07-29T08:42:01;5.45;;;5.05;;
30346;SDS011;19047;44.782;20.468;2022-07-29T08:45:34;5.57;;;5.10;;
30346;SDS011;19047;44.782;20.468;2022-07-29T11:50:11;8.25;;;7.45;;
30346;SDS011;19047;44.782;20.468;2022-07-29T12:21:26;8.20;;;7.60;;
30346;SDS011;19047;44.782;20.468;2022-07-29T12:28:18;8.07;;;7.38;;
30346;SDS011;19047;44.782;20.468;2022-07-29T12:31:52;8.25;;;7.55;;
30346;SDS011;19047;44.782;20.468;2022-07-29T12:35:13;9.38;;;7.47;;
30346;SDS011;19047;44.782;20.468;2022-07-29T12:38:47;7.82;;;7.10;;
30346;SDS011;19047;44.782;20.468;2022-07-29T12:42:14;7.60;;;7.00;;
30346;SDS011;19047;44.782;20.468;2022-07-29T12:45:46;7.90;;;7.22;;
30346;SDS011;19047;44.782;20.468;2022-07-29T13:20:23;7.45;;;6.68;;
30346;SDS011;19047;44.782;20.468;2022-07-29T13:23:56;7.85;;;7.10;;
30346;SDS011;19047;44.782;20.468;2022-07-29T13:27:25;7.03;;;6.43;;
30346;SDS011;19047;44.782;20.468;2022-07-29T13:30:58;7.88;;;7.28;;
30346;SDS011;19047;44.782;20.468;2022-07-29T13:34:15;7.70;;;7.10;;
30346;SDS011;19047;44.782;20.468;2022-07-29T13:37:48;7.70;;;7.05;;
30346;SDS011;19047;44.782;20.468;2022-07-29T13:41:05;7.65;;;6.95;;
30346;SDS011;19047;44.782;20.468;2022-07-29T13:44:36;7.82;;;7.13;;
30346;SDS011;19047;44.782;20.468;2022-07-29T13:47:53;7.78;;;7.13;;
30346;SDS011;19047;44.782;20.468;2022-07-29T13:51:30;6.75;;;6.25;;
30346;SDS011;19047;44.782;20.468;2022-07-29T13:54:48;7.80;;;7.13;;
30346;SDS011;19047;44.782;20.468;2022-07-29T13:58:19;7.80;;;6.90;;
30346;SDS011;19047;44.782;20.468;2022-07-29T14:01:36;7.05;;;6.45;;
30346;SDS011;19047;44.782;20.468;2022-07-29T14:05:10;8.23;;;7.53;;
30346;SDS011;19047;44.782;20.468;2022-07-29T14:08:43;7.82;;;7.13;;
30346;SDS011;19047;44.782;20.468;2022-07-29T14:12:14;8.45;;;7.75;;
30346;SDS011;19047;44.782;20.468;2022-07-29T14:15:31;8.38;;;7.68;;
30346;SDS011;19047;44.782;20.468;2022-07-29T14:19:02;8.20;;;7.55;;
30346;SDS011;19047;44.782;20.468;2022-07-29T15:13:24;8.57;;;7.97;;
30346;SDS011;19047;44.782;20.468;2022-07-29T15:16:42;9.35;;;8.65;;
30346;SDS011;19047;44.782;20.468;2022-07-29T15:20:13;8.90;;;8.20;;
30346;SDS011;19047;44.782;20.468;2022-07-29T15:23:29;8.77;;;8.18;;
30346;SDS011;19047;44.782;20.468;2022-07-29T15:27:01;8.38;;;7.78;;
30346;SDS011;19047;44.782;20.468;2022-07-29T16:07:48;8.07;;;7.47;;
30346;SDS011;19047;44.782;20.468;2022-07-29T16:11:05;7.85;;;7.15;;
30346;SDS011;19047;44.782;20.468;2022-07-29T16:14:35;8.30;;;7.60;;
30346;SDS011;19047;44.782;20.468;2022-07-29T16:17:52;8.20;;;7.50;;
